sensor_id;sensor_type;location;lat;lon;timestamp;P1;durP1;ratioP1;P2;durP2;ratioP2
74900;SDS011;63461;51.416;6.758;2022-12-18T00:01:26;31.03;;;11.10;;
74900;SDS011;63461;51.416;6.758;2022-12-18T00:03:53;28.53;;;9.80;;
74900;SDS011;63461;51.416;6.758;2022-12-18T00:06:21;23.57;;;9.53;;
74900;SDS011;63461;51.416;6.758;2022-12-18T00:08:47;24.17;;;8.93;;
74900;SDS011;63461;51.416;6.758;2022-12-18T00:11:14;26.80;;;8.73;;
74900;SDS011;63461;51.416;6.758;2022-12-18T00:13:43;25.67;;;9.47;;
74900;SDS011;63461;51.416;6.758;2022-12-18T00:16:10;21.73;;;8.63;;
74900;SDS011;63461;51.416;6.758;2022-12-18T00:18:38;18.23;;;8.13;;
74900;SDS011;63461;51.416;6.758;2022-12-18T00:21:06;23.07;;;8.00;;
74900;SDS011;63461;51.416;6.758;2022-12-18T00:23:33;21.57;;;8.20;;
74900;SDS011;63461;51.416;6.758;2022-12-18T00:26:01;25.13;;;8.33;;
74900;SDS011;63461;51.416;6.758;2022-12-18T00:28:30;24.53;;;9.00;;
74900;SDS011;63461;51.416;6.758;2022-12-18T00:31:38;23.63;;;8.47;;
74900;SDS011;63461;51.416;6.758;2022-12-18T00:33:46;22.90;;;8.07;;
74900;SDS011;63461;51.416;6.758;2022-12-18T00:36:13;22.10;;;7.83;;
74900;SDS011;63461;51.416;6.758;2022-12-18T00:38:44;22.27;;;7.77;;
74900;SDS011;63461;51.416;6.758;2022-12-18T00:41:10;16.80;;;7.40;;
74900;SDS011;63461;51.416;6.758;2022-12-18T00:43:37;16.10;;;6.70;;
74900;SDS011;63461;51.416;6.758;2022-12-18T00:46:03;17.67;;;6.50;;
74900;SDS011;63461;51.416;6.758;2022-12-18T00:48:30;16.37;;;6.33;;
74900;SDS011;63461;51.416;6.758;2022-12-18T00:50:56;17.70;;;6.70;;
74900;SDS011;63461;51.416;6.758;2022-12-18T00:53:22;17.80;;;7.10;;
74900;SDS011;63461;51.416;6.758;2022-12-18T00:55:48;17.23;;;6.10;;
74900;SDS011;63461;51.416;6.758;2022-12-18T00:58:15;17.87;;;7.00;;
74900;SDS011;63461;51.416;6.758;2022-12-18T01:00:42;22.30;;;9.07;;
74900;SDS011;63461;51.416;6.758;2022-12-18T01:03:11;53.00;;;18.40;;
74900;SDS011;63461;51.416;6.758;2022-12-18T01:05:39;60.87;;;19.10;;
74900;SDS011;63461;51.416;6.758;2022-12-18T01:08:06;41.60;;;14.77;;
74900;SDS011;63461;51.416;6.758;2022-12-18T01:10:32;33.70;;;12.30;;
74900;SDS011;63461;51.416;6.758;2022-12-18T01:12:58;22.87;;;9.60;;
74900;SDS011;63461;51.416;6.758;2022-12-18T01:15:23;16.47;;;7.87;;
74900;SDS011;63461;51.416;6.758;2022-12-18T01:17:51;19.00;;;7.10;;
74900;SDS011;63461;51.416;6.758;2022-12-18T01:20:17;24.57;;;8.47;;
74900;SDS011;63461;51.416;6.758;2022-12-18T01:22:43;16.37;;;6.77;;
74900;SDS011;63461;51.416;6.758;2022-12-18T01:25:09;21.93;;;7.07;;
74900;SDS011;63461;51.416;6.758;2022-12-18T01:27:35;17.77;;;6.50;;
74900;SDS011;63461;51.416;6.758;2022-12-18T01:30:02;15.07;;;6.43;;
74900;SDS011;63461;51.416;6.758;2022-12-18T01:32:29;16.83;;;6.20;;
74900;SDS011;63461;51.416;6.758;2022-12-18T01:34:56;17.13;;;5.97;;
74900;SDS011;63461;51.416;6.758;2022-12-18T01:37:21;14.73;;;6.17;;
74900;SDS011;63461;51.416;6.758;2022-12-18T01:39:48;14.03;;;5.57;;
74900;SDS011;63461;51.416;6.758;2022-12-18T01:42:15;16.03;;;6.23;;
74900;SDS011;63461;51.416;6.758;2022-12-18T01:50:20;14.70;;;5.97;;
74900;SDS011;63461;51.416;6.758;2022-12-18T01:55:25;14.70;;;5.30;;
74900;SDS011;63461;51.416;6.758;2022-12-18T01:57:55;12.90;;;5.40;;
74900;SDS011;63461;51.416;6.758;2022-12-18T02:00:24;13.70;;;5.13;;
74900;SDS011;63461;51.416;6.758;2022-12-18T02:02:51;13.50;;;5.17;;
74900;SDS011;63461;51.416;6.758;2022-12-18T02:06:02;14.10;;;5.50;;
74900;SDS011;63461;51.416;6.758;2022-12-18T02:13:35;12.13;;;4.87;;
74900;SDS011;63461;51.416;6.758;2022-12-18T02:16:29;12.83;;;5.17;;
74900;SDS011;63461;51.416;6.758;2022-12-18T02:19:08;11.47;;;5.07;;
74900;SDS011;63461;51.416;6.758;2022-12-18T02:22:20;16.53;;;5.90;;
74900;SDS011;63461;51.416;6.758;2022-12-18T02:25:24;12.17;;;5.30;;
74900;SDS011;63461;51.416;6.758;2022-12-18T02:27:55;13.47;;;5.60;;
74900;SDS011;63461;51.416;6.758;2022-12-18T02:30:24;15.07;;;5.77;;
74900;SDS011;63461;51.416;6.758;2022-12-18T02:32:53;12.13;;;5.50;;
74900;SDS011;63461;51.416;6.758;2022-12-18T02:35:22;14.43;;;5.40;;
74900;SDS011;63461;51.416;6.758;2022-12-18T02:37:52;15.93;;;6.63;;
74900;SDS011;63461;51.416;6.758;2022-12-18T02:40:19;13.67;;;6.13;;
74900;SDS011;63461;51.416;6.758;2022-12-18T02:42:49;15.63;;;6.40;;
74900;SDS011;63461;51.416;6.758;2022-12-18T02:45:17;12.50;;;5.40;;
74900;SDS011;63461;51.416;6.758;2022-12-18T02:47:45;15.63;;;6.40;;
74900;SDS011;63461;51.416;6.758;2022-12-18T02:50:18;13.73;;;5.90;;
74900;SDS011;63461;51.416;6.758;2022-12-18T02:53:06;13.07;;;5.73;;
74900;SDS011;63461;51.416;6.758;2022-12-18T02:55:52;12.47;;;5.47;;
74900;SDS011;63461;51.416;6.758;2022-12-18T03:03:50;12.70;;;5.80;;
74900;SDS011;63461;51.416;6.758;2022-12-18T03:06:46;13.63;;;5.77;;
74900;SDS011;63461;51.416;6.758;2022-12-18T03:09:19;14.20;;;5.40;;
74900;SDS011;63461;51.416;6.758;2022-12-18T03:11:52;14.00;;;5.40;;
74900;SDS011;63461;51.416;6.758;2022-12-18T03:14:42;14.17;;;5.80;;
74900;SDS011;63461;51.416;6.758;2022-12-18T03:17:13;17.73;;;6.70;;
74900;SDS011;63461;51.416;6.758;2022-12-18T03:19:42;19.17;;;6.57;;
74900;SDS011;63461;51.416;6.758;2022-12-18T03:22:11;16.73;;;6.10;;
74900;SDS011;63461;51.416;6.758;2022-12-18T03:24:46;15.13;;;5.57;;
74900;SDS011;63461;51.416;6.758;2022-12-18T03:27:14;12.53;;;5.87;;
74900;SDS011;63461;51.416;6.758;2022-12-18T03:29:45;16.20;;;5.50;;
74900;SDS011;63461;51.416;6.758;2022-12-18T03:32:24;16.53;;;6.67;;
74900;SDS011;63461;51.416;6.758;2022-12-18T03:34:55;12.43;;;5.60;;
74900;SDS011;63461;51.416;6.758;2022-12-18T03:37:28;14.63;;;6.10;;
74900;SDS011;63461;51.416;6.758;2022-12-18T03:39:54;16.87;;;5.97;;
74900;SDS011;63461;51.416;6.758;2022-12-18T03:42:23;13.00;;;5.93;;
74900;SDS011;63461;51.416;6.758;2022-12-18T03:45:03;18.40;;;6.00;;
74900;SDS011;63461;51.416;6.758;2022-12-18T03:50:47;19.10;;;6.10;;
74900;SDS011;63461;51.416;6.758;2022-12-18T03:56:02;16.27;;;6.13;;
74900;SDS011;63461;51.416;6.758;2022-12-18T03:58:35;13.17;;;5.73;;
74900;SDS011;63461;51.416;6.758;2022-12-18T04:01:15;13.80;;;5.53;;
74900;SDS011;63461;51.416;6.758;2022-12-18T04:03:43;14.97;;;5.57;;
74900;SDS011;63461;51.416;6.758;2022-12-18T04:06:12;13.60;;;5.43;;
74900;SDS011;63461;51.416;6.758;2022-12-18T04:08:41;17.33;;;5.63;;
74900;SDS011;63461;51.416;6.758;2022-12-18T04:11:10;13.00;;;5.73;;
74900;SDS011;63461;51.416;6.758;2022-12-18T04:13:37;11.10;;;5.10;;
74900;SDS011;63461;51.416;6.758;2022-12-18T04:16:07;13.73;;;5.43;;
74900;SDS011;63461;51.416;6.758;2022-12-18T04:18:38;16.47;;;5.50;;
74900;SDS011;63461;51.416;6.758;2022-12-18T04:21:04;13.17;;;5.07;;
74900;SDS011;63461;51.416;6.758;2022-12-18T04:23:31;14.93;;;5.43;;
74900;SDS011;63461;51.416;6.758;2022-12-18T04:25:58;15.83;;;6.33;;
74900;SDS011;63461;51.416;6.758;2022-12-18T04:28:42;13.47;;;5.33;;
74900;SDS011;63461;51.416;6.758;2022-12-18T04:31:08;14.00;;;5.40;;
74900;SDS011;63461;51.416;6.758;2022-12-18T04:33:34;12.67;;;5.37;;
74900;SDS011;63461;51.416;6.758;2022-12-18T04:36:00;12.87;;;5.20;;
74900;SDS011;63461;51.416;6.758;2022-12-18T04:38:26;14.07;;;5.00;;
74900;SDS011;63461;51.416;6.758;2022-12-18T04:41:00;12.53;;;4.93;;
74900;SDS011;63461;51.416;6.758;2022-12-18T04:43:26;15.73;;;5.27;;
74900;SDS011;63461;51.416;6.758;2022-12-18T04:45:52;11.97;;;5.30;;
74900;SDS011;63461;51.416;6.758;2022-12-18T04:48:18;11.70;;;5.00;;
74900;SDS011;63461;51.416;6.758;2022-12-18T04:50:46;12.57;;;5.40;;
74900;SDS011;63461;51.416;6.758;2022-12-18T04:53:12;11.97;;;4.80;;
74900;SDS011;63461;51.416;6.758;2022-12-18T04:55:37;13.57;;;5.10;;
74900;SDS011;63461;51.416;6.758;2022-12-18T04:58:03;14.67;;;5.07;;
74900;SDS011;63461;51.416;6.758;2022-12-18T05:00:29;14.17;;;5.67;;
74900;SDS011;63461;51.416;6.758;2022-12-18T05:02:54;12.90;;;5.43;;
74900;SDS011;63461;51.416;6.758;2022-12-18T05:05:20;13.87;;;5.50;;
74900;SDS011;63461;51.416;6.758;2022-12-18T05:07:46;14.13;;;5.30;;
74900;SDS011;63461;51.416;6.758;2022-12-18T05:10:12;12.13;;;4.93;;
74900;SDS011;63461;51.416;6.758;2022-12-18T05:12:37;13.20;;;5.20;;
74900;SDS011;63461;51.416;6.758;2022-12-18T05:15:23;13.90;;;5.30;;
74900;SDS011;63461;51.416;6.758;2022-12-18T05:17:51;12.80;;;5.50;;
74900;SDS011;63461;51.416;6.758;2022-12-18T05:20:17;11.57;;;5.13;;
74900;SDS011;63461;51.416;6.758;2022-12-18T05:22:43;15.50;;;5.87;;
74900;SDS011;63461;51.416;6.758;2022-12-18T05:25:09;11.37;;;5.30;;
74900;SDS011;63461;51.416;6.758;2022-12-18T05:27:35;12.33;;;5.00;;
74900;SDS011;63461;51.416;6.758;2022-12-18T05:30:01;14.37;;;5.37;;
74900;SDS011;63461;51.416;6.758;2022-12-18T05:32:27;11.47;;;4.87;;
74900;SDS011;63461;51.416;6.758;2022-12-18T05:34:53;14.07;;;5.57;;
74900;SDS011;63461;51.416;6.758;2022-12-18T05:37:18;17.63;;;6.13;;
74900;SDS011;63461;51.416;6.758;2022-12-18T05:39:44;12.77;;;5.47;;
74900;SDS011;63461;51.416;6.758;2022-12-18T05:42:10;12.90;;;5.83;;
74900;SDS011;63461;51.416;6.758;2022-12-18T05:44:35;11.57;;;4.83;;
74900;SDS011;63461;51.416;6.758;2022-12-18T05:47:01;14.47;;;5.77;;
74900;SDS011;63461;51.416;6.758;2022-12-18T05:49:27;12.40;;;4.83;;
74900;SDS011;63461;51.416;6.758;2022-12-18T05:51:53;14.53;;;5.60;;
74900;SDS011;63461;51.416;6.758;2022-12-18T05:54:18;13.97;;;5.27;;
74900;SDS011;63461;51.416;6.758;2022-12-18T05:56:44;10.70;;;5.17;;
74900;SDS011;63461;51.416;6.758;2022-12-18T05:59:10;13.20;;;5.00;;
74900;SDS011;63461;51.416;6.758;2022-12-18T06:01:35;12.73;;;5.10;;
74900;SDS011;63461;51.416;6.758;2022-12-18T06:04:01;12.23;;;5.07;;
74900;SDS011;63461;51.416;6.758;2022-12-18T06:06:27;14.30;;;5.13;;
74900;SDS011;63461;51.416;6.758;2022-12-18T06:08:54;13.93;;;4.93;;
74900;SDS011;63461;51.416;6.758;2022-12-18T06:11:23;13.60;;;5.83;;
74900;SDS011;63461;51.416;6.758;2022-12-18T06:13:51;12.40;;;5.00;;
74900;SDS011;63461;51.416;6.758;2022-12-18T06:16:18;12.77;;;4.90;;
74900;SDS011;63461;51.416;6.758;2022-12-18T06:18:43;11.23;;;5.30;;
74900;SDS011;63461;51.416;6.758;2022-12-18T06:21:09;9.43;;;4.87;;
74900;SDS011;63461;51.416;6.758;2022-12-18T06:23:35;13.37;;;5.17;;
74900;SDS011;63461;51.416;6.758;2022-12-18T06:26:09;10.80;;;5.10;;
74900;SDS011;63461;51.416;6.758;2022-12-18T06:28:36;10.87;;;4.43;;
74900;SDS011;63461;51.416;6.758;2022-12-18T06:31:03;12.53;;;4.70;;
74900;SDS011;63461;51.416;6.758;2022-12-18T06:33:29;11.63;;;4.27;;
74900;SDS011;63461;51.416;6.758;2022-12-18T06:35:59;14.57;;;5.33;;
74900;SDS011;63461;51.416;6.758;2022-12-18T06:38:26;11.40;;;4.67;;
74900;SDS011;63461;51.416;6.758;2022-12-18T06:40:52;13.87;;;4.93;;
74900;SDS011;63461;51.416;6.758;2022-12-18T06:43:18;12.00;;;4.40;;
74900;SDS011;63461;51.416;6.758;2022-12-18T06:45:44;11.57;;;4.43;;
74900;SDS011;63461;51.416;6.758;2022-12-18T06:48:11;11.40;;;4.27;;
74900;SDS011;63461;51.416;6.758;2022-12-18T06:50:37;12.20;;;4.43;;
74900;SDS011;63461;51.416;6.758;2022-12-18T06:53:06;14.07;;;4.70;;
74900;SDS011;63461;51.416;6.758;2022-12-18T06:55:32;10.70;;;5.03;;
74900;SDS011;63461;51.416;6.758;2022-12-18T06:57:58;13.70;;;5.13;;
74900;SDS011;63461;51.416;6.758;2022-12-18T07:00:24;12.13;;;4.97;;
74900;SDS011;63461;51.416;6.758;2022-12-18T07:02:50;11.20;;;4.93;;
74900;SDS011;63461;51.416;6.758;2022-12-18T07:05:15;9.63;;;4.37;;
74900;SDS011;63461;51.416;6.758;2022-12-18T07:07:41;12.83;;;4.80;;
74900;SDS011;63461;51.416;6.758;2022-12-18T07:10:07;11.90;;;4.50;;
74900;SDS011;63461;51.416;6.758;2022-12-18T07:12:33;9.77;;;4.87;;
74900;SDS011;63461;51.416;6.758;2022-12-18T07:14:59;12.90;;;4.57;;
74900;SDS011;63461;51.416;6.758;2022-12-18T07:17:25;13.10;;;4.63;;
74900;SDS011;63461;51.416;6.758;2022-12-18T07:19:50;10.63;;;4.77;;
74900;SDS011;63461;51.416;6.758;2022-12-18T07:22:16;8.13;;;4.50;;
74900;SDS011;63461;51.416;6.758;2022-12-18T07:24:42;11.73;;;4.63;;
74900;SDS011;63461;51.416;6.758;2022-12-18T07:27:08;11.03;;;4.70;;
74900;SDS011;63461;51.416;6.758;2022-12-18T07:29:33;10.70;;;4.50;;
74900;SDS011;63461;51.416;6.758;2022-12-18T07:31:59;12.23;;;4.70;;
74900;SDS011;63461;51.416;6.758;2022-12-18T07:34:25;15.13;;;4.97;;
74900;SDS011;63461;51.416;6.758;2022-12-18T07:36:51;12.13;;;4.50;;
74900;SDS011;63461;51.416;6.758;2022-12-18T07:39:16;13.37;;;5.33;;
74900;SDS011;63461;51.416;6.758;2022-12-18T07:41:42;12.60;;;5.27;;
74900;SDS011;63461;51.416;6.758;2022-12-18T07:44:28;12.00;;;5.17;;
74900;SDS011;63461;51.416;6.758;2022-12-18T07:46:53;11.83;;;4.70;;
74900;SDS011;63461;51.416;6.758;2022-12-18T07:49:19;14.53;;;5.00;;
74900;SDS011;63461;51.416;6.758;2022-12-18T07:51:45;11.53;;;4.67;;
74900;SDS011;63461;51.416;6.758;2022-12-18T07:54:14;10.13;;;4.40;;
74900;SDS011;63461;51.416;6.758;2022-12-18T07:56:40;14.80;;;5.37;;
74900;SDS011;63461;51.416;6.758;2022-12-18T07:59:05;13.60;;;5.83;;
74900;SDS011;63461;51.416;6.758;2022-12-18T08:01:32;19.60;;;6.67;;
74900;SDS011;63461;51.416;6.758;2022-12-18T08:03:58;20.33;;;8.13;;
74900;SDS011;63461;51.416;6.758;2022-12-18T08:06:24;31.37;;;11.80;;
74900;SDS011;63461;51.416;6.758;2022-12-18T08:08:51;21.97;;;8.90;;
74900;SDS011;63461;51.416;6.758;2022-12-18T08:11:18;27.63;;;10.20;;
74900;SDS011;63461;51.416;6.758;2022-12-18T08:13:44;16.47;;;7.80;;
74900;SDS011;63461;51.416;6.758;2022-12-18T08:16:10;26.00;;;10.10;;
74900;SDS011;63461;51.416;6.758;2022-12-18T08:18:36;20.07;;;7.93;;
74900;SDS011;63461;51.416;6.758;2022-12-18T08:21:12;19.50;;;7.50;;
74900;SDS011;63461;51.416;6.758;2022-12-18T08:23:40;25.53;;;7.77;;
74900;SDS011;63461;51.416;6.758;2022-12-18T08:26:06;21.23;;;7.47;;
74900;SDS011;63461;51.416;6.758;2022-12-18T08:28:32;19.70;;;7.60;;
74900;SDS011;63461;51.416;6.758;2022-12-18T08:30:58;18.77;;;7.70;;
74900;SDS011;63461;51.416;6.758;2022-12-18T08:33:24;19.17;;;7.20;;
74900;SDS011;63461;51.416;6.758;2022-12-18T08:35:51;15.93;;;7.13;;
74900;SDS011;63461;51.416;6.758;2022-12-18T08:38:17;16.07;;;6.90;;
74900;SDS011;63461;51.416;6.758;2022-12-18T08:40:43;19.43;;;7.00;;
74900;SDS011;63461;51.416;6.758;2022-12-18T08:43:09;16.90;;;6.80;;
74900;SDS011;63461;51.416;6.758;2022-12-18T08:45:54;15.97;;;5.90;;
74900;SDS011;63461;51.416;6.758;2022-12-18T08:48:20;13.97;;;5.83;;
74900;SDS011;63461;51.416;6.758;2022-12-18T08:50:56;13.53;;;5.40;;
74900;SDS011;63461;51.416;6.758;2022-12-18T08:53:23;13.07;;;5.40;;
74900;SDS011;63461;51.416;6.758;2022-12-18T08:55:49;12.60;;;5.30;;
74900;SDS011;63461;51.416;6.758;2022-12-18T08:58:15;12.87;;;5.57;;
74900;SDS011;63461;51.416;6.758;2022-12-18T09:00:41;13.70;;;5.53;;
74900;SDS011;63461;51.416;6.758;2022-12-18T09:03:13;13.77;;;5.53;;
74900;SDS011;63461;51.416;6.758;2022-12-18T09:05:39;13.20;;;5.20;;
74900;SDS011;63461;51.416;6.758;2022-12-18T09:08:05;14.30;;;5.80;;
74900;SDS011;63461;51.416;6.758;2022-12-18T09:10:31;32.03;;;12.13;;
74900;SDS011;63461;51.416;6.758;2022-12-18T09:12:57;60.33;;;22.00;;
74900;SDS011;63461;51.416;6.758;2022-12-18T09:15:23;33.13;;;11.03;;
74900;SDS011;63461;51.416;6.758;2022-12-18T09:17:50;20.53;;;8.60;;
74900;SDS011;63461;51.416;6.758;2022-12-18T09:20:18;19.47;;;7.63;;
74900;SDS011;63461;51.416;6.758;2022-12-18T09:22:44;17.57;;;6.23;;
74900;SDS011;63461;51.416;6.758;2022-12-18T09:25:10;14.77;;;6.50;;
74900;SDS011;63461;51.416;6.758;2022-12-18T09:27:35;13.20;;;5.97;;
74900;SDS011;63461;51.416;6.758;2022-12-18T09:30:01;15.00;;;5.70;;
74900;SDS011;63461;51.416;6.758;2022-12-18T09:32:28;16.53;;;5.60;;
74900;SDS011;63461;51.416;6.758;2022-12-18T09:34:54;15.57;;;5.70;;
74900;SDS011;63461;51.416;6.758;2022-12-18T09:37:19;15.93;;;5.67;;
74900;SDS011;63461;51.416;6.758;2022-12-18T09:39:45;14.37;;;5.40;;
74900;SDS011;63461;51.416;6.758;2022-12-18T09:42:29;11.90;;;5.23;;
74900;SDS011;63461;51.416;6.758;2022-12-18T09:44:55;7.83;;;3.63;;
74900;SDS011;63461;51.416;6.758;2022-12-18T09:49:56;10.60;;;5.20;;
74900;SDS011;63461;51.416;6.758;2022-12-18T09:52:35;12.23;;;5.40;;
74900;SDS011;63461;51.416;6.758;2022-12-18T09:57:33;16.20;;;5.37;;
74900;SDS011;63461;51.416;6.758;2022-12-18T10:00:25;10.17;;;5.23;;
74900;SDS011;63461;51.416;6.758;2022-12-18T10:02:56;10.47;;;4.67;;
74900;SDS011;63461;51.416;6.758;2022-12-18T10:05:33;12.20;;;4.97;;
74900;SDS011;63461;51.416;6.758;2022-12-18T10:10:53;11.33;;;5.17;;
74900;SDS011;63461;51.416;6.758;2022-12-18T10:16:17;11.20;;;4.97;;
74900;SDS011;63461;51.416;6.758;2022-12-18T10:19:11;13.90;;;5.27;;
74900;SDS011;63461;51.416;6.758;2022-12-18T10:27:09;12.47;;;5.40;;
74900;SDS011;63461;51.416;6.758;2022-12-18T10:29:41;12.20;;;5.50;;
74900;SDS011;63461;51.416;6.758;2022-12-18T10:35:25;14.40;;;5.57;;
74900;SDS011;63461;51.416;6.758;2022-12-18T10:38:02;13.13;;;5.53;;
74900;SDS011;63461;51.416;6.758;2022-12-18T10:40:31;16.63;;;5.73;;
74900;SDS011;63461;51.416;6.758;2022-12-18T10:43:13;12.60;;;5.37;;
74900;SDS011;63461;51.416;6.758;2022-12-18T10:45:41;11.37;;;5.00;;
74900;SDS011;63461;51.416;6.758;2022-12-18T10:48:22;11.83;;;5.57;;
74900;SDS011;63461;51.416;6.758;2022-12-18T10:50:50;32.73;;;11.30;;
74900;SDS011;63461;51.416;6.758;2022-12-18T10:53:26;32.70;;;10.33;;
74900;SDS011;63461;51.416;6.758;2022-12-18T10:55:55;32.37;;;9.93;;
74900;SDS011;63461;51.416;6.758;2022-12-18T11:01:04;57.80;;;15.00;;
74900;SDS011;63461;51.416;6.758;2022-12-18T11:06:08;36.83;;;11.20;;
74900;SDS011;63461;51.416;6.758;2022-12-18T11:08:39;24.23;;;8.57;;
74900;SDS011;63461;51.416;6.758;2022-12-18T11:11:15;18.17;;;8.00;;
74900;SDS011;63461;51.416;6.758;2022-12-18T11:13:55;15.33;;;5.80;;
74900;SDS011;63461;51.416;6.758;2022-12-18T11:16:36;12.47;;;5.20;;
74900;SDS011;63461;51.416;6.758;2022-12-18T11:19:32;9.27;;;4.13;;
74900;SDS011;63461;51.416;6.758;2022-12-18T11:21:57;12.40;;;5.13;;
74900;SDS011;63461;51.416;6.758;2022-12-18T11:24:26;12.57;;;5.40;;
74900;SDS011;63461;51.416;6.758;2022-12-18T11:26:57;8.73;;;4.50;;
74900;SDS011;63461;51.416;6.758;2022-12-18T11:29:36;12.77;;;5.30;;
74900;SDS011;63461;51.416;6.758;2022-12-18T11:32:24;10.60;;;5.13;;
74900;SDS011;63461;51.416;6.758;2022-12-18T11:34:58;14.80;;;5.37;;
74900;SDS011;63461;51.416;6.758;2022-12-18T11:37:47;13.83;;;5.40;;
74900;SDS011;63461;51.416;6.758;2022-12-18T11:40:20;10.70;;;4.87;;
74900;SDS011;63461;51.416;6.758;2022-12-18T11:43:02;11.50;;;5.10;;
74900;SDS011;63461;51.416;6.758;2022-12-18T11:46:23;12.23;;;5.73;;
74900;SDS011;63461;51.416;6.758;2022-12-18T11:48:27;15.00;;;5.47;;
74900;SDS011;63461;51.416;6.758;2022-12-18T11:50:58;11.57;;;4.90;;
74900;SDS011;63461;51.416;6.758;2022-12-18T11:53:26;13.43;;;5.40;;
74900;SDS011;63461;51.416;6.758;2022-12-18T11:58:51;13.43;;;4.97;;
74900;SDS011;63461;51.416;6.758;2022-12-18T12:10:26;11.43;;;5.30;;
74900;SDS011;63461;51.416;6.758;2022-12-18T12:18:46;13.27;;;5.40;;
74900;SDS011;63461;51.416;6.758;2022-12-18T12:21:17;11.40;;;5.33;;
74900;SDS011;63461;51.416;6.758;2022-12-18T12:23:57;13.63;;;5.40;;
74900;SDS011;63461;51.416;6.758;2022-12-18T12:35:03;46.30;;;14.83;;
74900;SDS011;63461;51.416;6.758;2022-12-18T12:40:34;21.07;;;7.07;;
74900;SDS011;63461;51.416;6.758;2022-12-18T12:43:11;16.77;;;7.37;;
74900;SDS011;63461;51.416;6.758;2022-12-18T12:45:58;19.50;;;6.33;;
74900;SDS011;63461;51.416;6.758;2022-12-18T12:48:34;13.50;;;6.20;;
74900;SDS011;63461;51.416;6.758;2022-12-18T12:51:21;22.10;;;10.13;;
74900;SDS011;63461;51.416;6.758;2022-12-18T12:53:49;17.10;;;7.50;;
74900;SDS011;63461;51.416;6.758;2022-12-18T12:56:16;14.37;;;6.13;;
74900;SDS011;63461;51.416;6.758;2022-12-18T13:03:57;17.93;;;6.60;;
74900;SDS011;63461;51.416;6.758;2022-12-18T13:06:43;22.37;;;6.83;;
74900;SDS011;63461;51.416;6.758;2022-12-18T13:09:11;22.33;;;7.90;;
74900;SDS011;63461;51.416;6.758;2022-12-18T13:14:30;21.10;;;7.43;;
74900;SDS011;63461;51.416;6.758;2022-12-18T13:17:22;19.63;;;7.33;;
74900;SDS011;63461;51.416;6.758;2022-12-18T13:20:11;18.77;;;6.37;;
74900;SDS011;63461;51.416;6.758;2022-12-18T13:22:40;15.73;;;7.13;;
74900;SDS011;63461;51.416;6.758;2022-12-18T13:28:06;22.87;;;7.03;;
74900;SDS011;63461;51.416;6.758;2022-12-18T13:40:58;17.03;;;7.87;;
74900;SDS011;63461;51.416;6.758;2022-12-18T13:46:01;18.07;;;8.07;;
74900;SDS011;63461;51.416;6.758;2022-12-18T13:48:34;17.97;;;7.50;;
74900;SDS011;63461;51.416;6.758;2022-12-18T13:51:07;15.37;;;6.43;;
74900;SDS011;63461;51.416;6.758;2022-12-18T13:53:38;23.13;;;8.60;;
74900;SDS011;63461;51.416;6.758;2022-12-18T13:56:08;21.77;;;8.30;;
74900;SDS011;63461;51.416;6.758;2022-12-18T13:58:34;18.03;;;7.97;;
74900;SDS011;63461;51.416;6.758;2022-12-18T14:01:00;16.13;;;8.03;;
74900;SDS011;63461;51.416;6.758;2022-12-18T14:03:28;18.80;;;7.20;;
74900;SDS011;63461;51.416;6.758;2022-12-18T14:05:56;17.00;;;7.83;;
74900;SDS011;63461;51.416;6.758;2022-12-18T14:08:27;21.07;;;8.37;;
74900;SDS011;63461;51.416;6.758;2022-12-18T14:10:58;17.63;;;7.80;;
74900;SDS011;63461;51.416;6.758;2022-12-18T14:13:28;19.93;;;7.83;;
74900;SDS011;63461;51.416;6.758;2022-12-18T14:15:57;20.33;;;7.40;;
74900;SDS011;63461;51.416;6.758;2022-12-18T14:18:33;20.60;;;8.03;;
74900;SDS011;63461;51.416;6.758;2022-12-18T14:21:00;17.47;;;7.80;;
74900;SDS011;63461;51.416;6.758;2022-12-18T14:25:53;16.67;;;7.10;;
74900;SDS011;63461;51.416;6.758;2022-12-18T14:28:19;16.57;;;7.67;;
74900;SDS011;63461;51.416;6.758;2022-12-18T14:30:47;21.73;;;8.07;;
74900;SDS011;63461;51.416;6.758;2022-12-18T14:33:14;19.10;;;7.73;;
74900;SDS011;63461;51.416;6.758;2022-12-18T14:41:04;22.00;;;8.50;;
74900;SDS011;63461;51.416;6.758;2022-12-18T14:43:34;17.77;;;7.20;;
74900;SDS011;63461;51.416;6.758;2022-12-18T14:46:02;18.40;;;8.67;;
74900;SDS011;63461;51.416;6.758;2022-12-18T14:48:35;20.20;;;8.93;;
74900;SDS011;63461;51.416;6.758;2022-12-18T14:53:43;16.07;;;7.17;;
74900;SDS011;63461;51.416;6.758;2022-12-18T14:56:21;19.90;;;7.53;;
74900;SDS011;63461;51.416;6.758;2022-12-18T14:58:50;20.33;;;9.00;;
74900;SDS011;63461;51.416;6.758;2022-12-18T15:01:21;21.97;;;9.30;;
74900;SDS011;63461;51.416;6.758;2022-12-18T15:03:53;25.77;;;9.87;;
74900;SDS011;63461;51.416;6.758;2022-12-18T15:06:35;22.83;;;9.87;;
74900;SDS011;63461;51.416;6.758;2022-12-18T15:09:20;24.83;;;9.57;;
74900;SDS011;63461;51.416;6.758;2022-12-18T15:11:47;24.33;;;10.27;;
74900;SDS011;63461;51.416;6.758;2022-12-18T15:14:24;23.23;;;10.27;;
74900;SDS011;63461;51.416;6.758;2022-12-18T15:17:00;25.23;;;9.90;;
74900;SDS011;63461;51.416;6.758;2022-12-18T15:19:47;19.87;;;8.80;;
74900;SDS011;63461;51.416;6.758;2022-12-18T15:24:53;27.33;;;10.00;;
74900;SDS011;63461;51.416;6.758;2022-12-18T15:27:20;25.47;;;9.97;;
74900;SDS011;63461;51.416;6.758;2022-12-18T15:30:02;24.53;;;8.27;;
74900;SDS011;63461;51.416;6.758;2022-12-18T15:32:41;23.60;;;8.90;;
74900;SDS011;63461;51.416;6.758;2022-12-18T15:37:36;24.20;;;9.97;;
74900;SDS011;63461;51.416;6.758;2022-12-18T15:40:03;23.23;;;9.97;;
74900;SDS011;63461;51.416;6.758;2022-12-18T15:42:30;22.20;;;8.90;;
74900;SDS011;63461;51.416;6.758;2022-12-18T15:45:14;25.10;;;9.20;;
74900;SDS011;63461;51.416;6.758;2022-12-18T15:47:40;21.20;;;8.40;;
74900;SDS011;63461;51.416;6.758;2022-12-18T15:50:09;21.73;;;8.30;;
74900;SDS011;63461;51.416;6.758;2022-12-18T15:52:42;26.20;;;9.40;;
74900;SDS011;63461;51.416;6.758;2022-12-18T15:57:57;30.03;;;11.07;;
74900;SDS011;63461;51.416;6.758;2022-12-18T16:00:23;25.43;;;9.97;;
74900;SDS011;63461;51.416;6.758;2022-12-18T16:02:49;25.20;;;9.17;;
74900;SDS011;63461;51.416;6.758;2022-12-18T16:05:15;21.87;;;9.43;;
74900;SDS011;63461;51.416;6.758;2022-12-18T16:07:43;40.87;;;10.13;;
74900;SDS011;63461;51.416;6.758;2022-12-18T16:10:09;25.63;;;10.93;;
74900;SDS011;63461;51.416;6.758;2022-12-18T16:12:35;33.13;;;11.13;;
74900;SDS011;63461;51.416;6.758;2022-12-18T16:15:02;29.37;;;11.20;;
74900;SDS011;63461;51.416;6.758;2022-12-18T16:17:29;23.27;;;9.90;;
74900;SDS011;63461;51.416;6.758;2022-12-18T16:19:55;25.90;;;10.63;;
74900;SDS011;63461;51.416;6.758;2022-12-18T16:22:25;27.03;;;9.97;;
74900;SDS011;63461;51.416;6.758;2022-12-18T16:24:54;25.80;;;9.67;;
74900;SDS011;63461;51.416;6.758;2022-12-18T16:27:21;31.37;;;11.17;;
74900;SDS011;63461;51.416;6.758;2022-12-18T16:29:48;27.57;;;11.43;;
74900;SDS011;63461;51.416;6.758;2022-12-18T16:32:15;32.53;;;11.93;;
74900;SDS011;63461;51.416;6.758;2022-12-18T16:34:43;30.03;;;9.37;;
74900;SDS011;63461;51.416;6.758;2022-12-18T16:37:09;49.57;;;17.00;;
74900;SDS011;63461;51.416;6.758;2022-12-18T16:39:37;31.77;;;13.43;;
74900;SDS011;63461;51.416;6.758;2022-12-18T16:42:04;32.97;;;13.47;;
74900;SDS011;63461;51.416;6.758;2022-12-18T16:44:33;31.47;;;12.27;;
74900;SDS011;63461;51.416;6.758;2022-12-18T16:46:59;29.73;;;11.53;;
74900;SDS011;63461;51.416;6.758;2022-12-18T16:49:27;24.50;;;8.97;;
74900;SDS011;63461;51.416;6.758;2022-12-18T16:51:53;26.60;;;10.67;;